createdAt,value
2018-07-24T00:01:14.068Z,16.99
2018-07-24T00:03:41.235Z,16.99
2018-07-24T00:06:08.385Z,17.01
2018-07-24T00:08:35.506Z,16.99
2018-07-24T00:11:03.233Z,16.98
2018-07-24T00:13:30.443Z,16.93
2018-07-24T00:15:57.556Z,16.92
2018-07-24T00:18:24.742Z,16.87
2018-07-24T00:20:51.869Z,16.79
2018-07-24T00:23:19.090Z,16.78
2018-07-24T00:25:46.262Z,16.78
2018-07-24T00:28:13.403Z,16.73
2018-07-24T00:30:40.517Z,16.69
2018-07-24T00:33:07.687Z,16.70
2018-07-24T00:35:34.928Z,16.68
2018-07-24T00:38:02.089Z,16.64
2018-07-24T00:40:29.241Z,16.63
2018-07-24T00:42:56.336Z,16.65
2018-07-24T00:45:23.457Z,16.60
2018-07-24T00:47:50.753Z,16.57
2018-07-24T00:50:17.871Z,16.54
2018-07-24T00:52:45.020Z,16.48
2018-07-24T00:55:12.184Z,16.47
2018-07-24T00:57:39.290Z,16.46
2018-07-24T01:00:06.559Z,16.43
2018-07-24T01:02:34.057Z,16.35
2018-07-24T01:05:01.167Z,16.27
2018-07-24T01:07:32.869Z,16.30
2018-07-24T01:10:00.046Z,16.36
2018-07-24T01:12:27.300Z,16.27
2018-07-24T01:14:54.428Z,16.19
2018-07-24T01:17:21.595Z,16.18
2018-07-24T01:19:48.709Z,16.16
2018-07-24T01:22:15.830Z,16.17
2018-07-24T01:24:43.201Z,16.09
2018-07-24T01:27:10.349Z,16.05
2018-07-24T01:29:37.480Z,16.04
2018-07-24T01:32:05.028Z,16.04
2018-07-24T01:34:32.134Z,16.07
2018-07-24T01:37:00.276Z,16.10
2018-07-24T01:39:27.444Z,16.01
2018-07-24T01:41:54.600Z,16.01
2018-07-24T01:44:21.731Z,15.95
2018-07-24T01:46:49.238Z,15.94
2018-07-24T01:49:16.481Z,15.85
2018-07-24T01:51:43.582Z,15.80
2018-07-24T01:54:10.763Z,15.76
2018-07-24T01:56:38.094Z,15.70
2018-07-24T01:59:05.175Z,15.62
2018-07-24T02:01:32.456Z,15.63
2018-07-24T02:03:59.629Z,15.60
2018-07-24T02:06:26.769Z,15.55
2018-07-24T02:08:53.935Z,15.55
2018-07-24T02:11:21.045Z,15.57
2018-07-24T02:13:48.277Z,15.62
2018-07-24T02:16:15.809Z,15.61
2018-07-24T02:18:42.900Z,15.60
2018-07-24T02:21:10.040Z,15.54
2018-07-24T02:23:37.195Z,15.48
2018-07-24T02:26:04.614Z,15.42
2018-07-24T02:28:31.742Z,15.33
2018-07-24T02:30:58.943Z,15.26
2018-07-24T02:33:26.066Z,15.27
2018-07-24T02:35:53.197Z,15.25
2018-07-24T02:38:20.466Z,15.26
2018-07-24T02:40:47.596Z,15.21
2018-07-24T02:43:14.724Z,15.19
2018-07-24T02:45:41.887Z,15.17
2018-07-24T02:48:08.988Z,15.15
2018-07-24T02:50:36.234Z,15.17
2018-07-24T02:53:03.685Z,15.12
2018-07-24T02:55:30.776Z,15.11
2018-07-24T02:57:57.883Z,15.17
2018-07-24T03:00:25.079Z,15.16
2018-07-24T03:02:52.349Z,15.10
2018-07-24T03:05:19.459Z,15.09
2018-07-24T03:07:46.639Z,15.16
2018-07-24T03:10:13.861Z,15.26
2018-07-24T03:12:40.980Z,15.27
2018-07-24T03:15:08.231Z,15.27
2018-07-24T03:17:35.404Z,15.22
2018-07-24T03:20:02.559Z,15.21
2018-07-24T03:22:29.736Z,15.17
2018-07-24T03:24:56.867Z,15.19
2018-07-24T03:27:24.095Z,15.17
2018-07-24T03:29:51.261Z,15.18
2018-07-24T03:32:18.404Z,15.15
2018-07-24T03:34:45.528Z,15.18
2018-07-24T03:37:12.704Z,15.17
2018-07-24T03:39:39.973Z,15.18
2018-07-24T03:42:07.206Z,15.16
2018-07-24T03:44:34.672Z,15.15
2018-07-24T03:47:01.773Z,15.11
2018-07-24T03:49:28.880Z,15.15
2018-07-24T03:51:56.203Z,15.18
2018-07-24T03:54:23.299Z,15.14
2018-07-24T03:56:50.431Z,15.18
2018-07-24T03:59:17.601Z,15.21
2018-07-24T04:01:44.731Z,15.22
2018-07-24T04:04:18.603Z,15.27
2018-07-24T04:06:45.715Z,15.29
2018-07-24T04:09:12.841Z,15.39
2018-07-24T04:11:40.684Z,15.42
2018-07-24T04:14:07.788Z,15.42
2018-07-24T04:16:35.355Z,15.45
2018-07-24T04:19:02.540Z,15.49
2018-07-24T04:21:29.699Z,15.51
2018-07-24T04:23:56.815Z,15.58
2018-07-24T04:26:23.974Z,15.69
2018-07-24T04:28:51.140Z,15.79
2018-07-24T04:31:18.340Z,15.86
2018-07-24T04:33:45.493Z,15.94
2018-07-24T04:36:12.646Z,15.98
2018-07-24T04:38:39.887Z,16.02
2018-07-24T04:41:07.048Z,16.03
2018-07-24T04:43:34.285Z,16.14
2018-07-24T04:46:01.393Z,16.18
2018-07-24T04:48:28.606Z,16.26
2018-07-24T04:50:55.783Z,16.36
2018-07-24T04:53:22.920Z,16.44
2018-07-24T04:55:50.065Z,16.57
2018-07-24T04:58:17.161Z,16.71
2018-07-24T05:00:45.308Z,16.80
2018-07-24T05:03:12.512Z,16.86
2018-07-24T05:05:39.627Z,16.99
2018-07-24T05:08:06.804Z,17.12
2018-07-24T05:10:33.968Z,17.24
2018-07-24T05:13:01.126Z,17.37
2018-07-24T05:15:28.305Z,17.46
2018-07-24T05:17:56.044Z,17.62
2018-07-24T05:20:23.208Z,17.78
2018-07-24T05:22:50.491Z,17.92
2018-07-24T05:25:17.636Z,18.11
2018-07-24T05:27:44.733Z,18.40
2018-07-24T05:30:11.915Z,18.54
2018-07-24T05:32:39.117Z,18.71
2018-07-24T05:35:06.394Z,18.82
2018-07-24T05:37:33.564Z,19.06
2018-07-24T05:40:00.676Z,19.27
2018-07-24T05:42:27.791Z,19.50
2018-07-24T05:44:54.986Z,19.68
2018-07-24T05:47:23.084Z,19.84
2018-07-24T05:49:50.237Z,20.00
2018-07-24T05:52:17.368Z,20.12
2018-07-24T05:54:44.658Z,20.24
2018-07-24T05:57:11.812Z,20.36
2018-07-24T05:59:38.920Z,20.53
2018-07-24T06:02:06.104Z,20.71
2018-07-24T06:04:33.242Z,20.81
2018-07-24T06:07:00.563Z,20.97
2018-07-24T06:09:27.715Z,21.08
2018-07-24T06:11:54.836Z,21.29
2018-07-24T06:14:22.041Z,21.41
2018-07-24T06:16:49.155Z,21.50
2018-07-24T06:19:16.265Z,21.64
2018-07-24T06:21:43.474Z,21.69
2018-07-24T06:24:10.564Z,21.81
2018-07-24T06:26:37.721Z,21.93
2018-07-24T06:29:04.867Z,22.07
2018-07-24T06:31:32.010Z,22.15
2018-07-24T06:33:59.167Z,22.37
2018-07-24T06:36:26.279Z,22.47
2018-07-24T06:38:53.524Z,22.63
2018-07-24T06:41:20.624Z,22.76
2018-07-24T06:43:47.749Z,22.88
2018-07-24T06:46:15.053Z,22.95
2018-07-24T06:48:42.186Z,23.13
2018-07-24T06:51:09.334Z,23.26
2018-07-24T06:53:36.517Z,23.37
2018-07-24T06:56:03.720Z,23.45
2018-07-24T06:58:30.970Z,23.75
2018-07-24T07:00:58.156Z,23.85
2018-07-24T07:03:25.327Z,23.86
2018-07-24T07:05:52.412Z,23.87
2018-07-24T07:08:19.595Z,23.91
2018-07-24T07:10:46.728Z,24.01
2018-07-24T07:13:13.975Z,24.04
2018-07-24T07:15:41.095Z,24.13
2018-07-24T07:18:08.227Z,24.19
2018-07-24T07:20:35.421Z,24.36
2018-07-24T07:23:02.733Z,24.40
2018-07-24T07:25:29.847Z,24.65
2018-07-24T07:27:56.993Z,24.65
2018-07-24T07:30:24.159Z,24.60
2018-07-24T07:32:51.284Z,24.73
2018-07-24T07:35:18.408Z,24.73
2018-07-24T07:37:45.584Z,24.86
2018-07-24T07:40:12.708Z,24.84
2018-07-24T07:42:39.839Z,25.01
2018-07-24T07:45:07.036Z,25.19
2018-07-24T07:47:34.216Z,25.21
2018-07-24T07:50:01.394Z,25.19
2018-07-24T07:52:28.608Z,25.25
2018-07-24T07:54:55.741Z,25.25
2018-07-24T07:57:22.846Z,25.17
2018-07-24T07:59:50.018Z,25.28
2018-07-24T08:02:17.154Z,25.52
2018-07-24T08:04:44.294Z,25.58
2018-07-24T08:07:11.476Z,25.66
2018-07-24T08:09:38.637Z,25.61
2018-07-24T08:12:05.786Z,25.28
2018-07-24T08:14:32.980Z,25.36
2018-07-24T08:17:00.139Z,25.51
2018-07-24T08:19:27.253Z,25.77
2018-07-24T08:21:54.392Z,25.99
2018-07-24T08:24:21.560Z,26.22
2018-07-24T08:26:48.705Z,26.29
2018-07-24T08:29:15.899Z,26.16
2018-07-24T08:31:43.032Z,26.51
2018-07-24T08:34:10.197Z,26.62
2018-07-24T08:36:37.441Z,26.78
2018-07-24T08:39:07.748Z,26.94
2018-07-24T08:41:34.984Z,27.05
2018-07-24T08:44:02.129Z,27.08
2018-07-24T08:46:29.247Z,27.13
2018-07-24T08:48:56.433Z,27.05
2018-07-24T08:51:23.695Z,27.06
2018-07-24T08:53:51.125Z,27.05
2018-07-24T08:56:18.016Z,26.99
2018-07-24T08:58:45.285Z,27.11
2018-07-24T09:01:12.428Z,27.05
2018-07-24T09:03:39.634Z,27.35
2018-07-24T09:06:06.916Z,27.55
2018-07-24T09:08:34.049Z,27.64
2018-07-24T09:11:01.182Z,27.02
2018-07-24T09:13:28.353Z,26.82
2018-07-24T09:15:55.477Z,26.69
2018-07-24T09:18:22.595Z,26.37
2018-07-24T09:20:49.868Z,26.70
2018-07-24T09:23:16.987Z,27.19
2018-07-24T09:25:44.148Z,27.68
2018-07-24T09:28:11.314Z,28.04
2018-07-24T09:30:38.457Z,28.32
2018-07-24T09:33:05.734Z,28.72
2018-07-24T09:35:33.043Z,28.93
2018-07-24T09:38:00.182Z,28.80
2018-07-24T09:40:27.357Z,28.88
2018-07-24T09:42:54.531Z,29.18
2018-07-24T09:45:21.666Z,29.51
2018-07-24T09:47:48.790Z,29.53
2018-07-24T09:50:21.789Z,29.85
2018-07-24T09:52:48.965Z,30.01
2018-07-24T09:55:16.095Z,30.25
2018-07-24T09:57:43.343Z,30.09
2018-07-24T10:00:10.495Z,30.37
2018-07-24T10:02:38.250Z,30.29
2018-07-24T10:05:05.814Z,30.72
2018-07-24T10:07:33.031Z,30.92
2018-07-24T10:10:00.149Z,31.05
2018-07-24T10:12:27.332Z,31.04
2018-07-24T10:14:54.468Z,31.10
2018-07-24T10:17:21.612Z,30.75
2018-07-24T10:19:48.800Z,31.36
2018-07-24T10:22:16.008Z,31.76
2018-07-24T10:24:43.136Z,30.70
2018-07-24T10:27:10.401Z,31.33
2018-07-24T10:29:37.545Z,31.63
2018-07-24T10:32:04.721Z,31.95
2018-07-24T10:34:31.977Z,31.91
2018-07-24T10:36:59.103Z,32.32
2018-07-24T10:39:26.262Z,32.54
2018-07-24T10:41:53.444Z,32.72
2018-07-24T10:44:20.567Z,33.15
2018-07-24T10:46:47.703Z,33.28
2018-07-24T10:49:14.920Z,33.28
2018-07-24T10:51:42.094Z,33.47
2018-07-24T10:54:09.236Z,33.72
2018-07-24T10:56:36.420Z,33.96
2018-07-24T10:59:03.589Z,34.12
2018-07-24T11:01:30.728Z,34.40
2018-07-24T11:03:57.968Z,34.49
2018-07-24T11:06:25.371Z,34.16
2018-07-24T11:08:52.680Z,33.06
2018-07-24T11:11:19.876Z,34.44
2018-07-24T11:13:46.999Z,34.00
2018-07-24T11:16:14.115Z,34.33
2018-07-24T11:18:41.252Z,34.85
2018-07-24T11:21:08.345Z,35.48
2018-07-24T11:23:35.457Z,35.21
2018-07-24T11:26:02.648Z,34.01
2018-07-24T11:28:29.944Z,33.29
2018-07-24T11:30:57.077Z,33.85
2018-07-24T11:33:24.521Z,34.55
2018-07-24T11:35:51.785Z,35.34
2018-07-24T11:38:18.868Z,35.75
2018-07-24T11:40:46.117Z,35.40
2018-07-24T11:43:13.227Z,35.98
2018-07-24T11:45:40.344Z,36.67
2018-07-24T11:48:07.596Z,37.07
2018-07-24T11:50:34.744Z,36.11
2018-07-24T11:53:02.056Z,36.35
2018-07-24T11:55:29.357Z,36.90
2018-07-24T11:57:56.513Z,37.85
2018-07-24T12:00:23.644Z,37.80
2018-07-24T12:02:50.812Z,38.15
2018-07-24T12:05:17.995Z,36.91
2018-07-24T12:07:45.181Z,37.89
2018-07-24T12:10:12.315Z,38.51
2018-07-24T12:12:39.431Z,39.16
2018-07-24T12:15:06.721Z,39.02
2018-07-24T12:17:33.882Z,38.17
2018-07-24T12:20:01.050Z,37.41
2018-07-24T12:22:28.205Z,36.67
2018-07-24T12:24:55.447Z,35.80
2018-07-24T12:27:22.623Z,35.12
2018-07-24T12:29:49.736Z,34.72
2018-07-24T12:32:16.906Z,33.93
2018-07-24T12:34:44.021Z,33.58
2018-07-24T12:37:11.887Z,32.78
2018-07-24T12:39:39.054Z,32.41
2018-07-24T12:42:06.229Z,31.82
2018-07-24T12:44:33.382Z,31.95
2018-07-24T12:47:00.551Z,31.73
2018-07-24T12:49:27.675Z,31.97
2018-07-24T12:51:54.831Z,31.97
2018-07-24T12:54:22.076Z,32.26
2018-07-24T12:56:49.201Z,32.35
2018-07-24T12:59:16.323Z,33.01
2018-07-24T13:01:43.507Z,33.00
2018-07-24T13:04:10.706Z,32.61
2018-07-24T13:06:37.850Z,32.20
2018-07-24T13:09:07.343Z,31.83
2018-07-24T13:11:34.500Z,31.51
2018-07-24T13:14:01.672Z,31.79
2018-07-24T13:16:28.866Z,31.38
2018-07-24T13:18:56.001Z,31.36
2018-07-24T13:21:23.153Z,31.54
2018-07-24T13:23:50.424Z,31.64
2018-07-24T13:26:17.557Z,31.86
2018-07-24T13:28:44.704Z,31.68
2018-07-24T13:31:11.925Z,31.60
2018-07-24T13:33:39.040Z,31.70
2018-07-24T13:36:06.548Z,31.94
2018-07-24T13:38:33.803Z,32.17
2018-07-24T13:41:00.936Z,32.08
2018-07-24T13:43:28.069Z,32.29
2018-07-24T13:45:55.256Z,32.27
2018-07-24T13:48:22.391Z,32.30
2018-07-24T13:50:49.533Z,32.35
2018-07-24T13:53:16.849Z,32.34
2018-07-24T13:55:44.040Z,32.52
2018-07-24T13:58:11.152Z,32.71
2018-07-24T14:00:38.321Z,33.32
2018-07-24T14:03:05.457Z,32.84
2018-07-24T14:05:32.598Z,32.76
2018-07-24T14:07:59.866Z,32.48
2018-07-24T14:10:27.028Z,32.57
2018-07-24T14:12:54.160Z,32.47
2018-07-24T14:15:21.374Z,32.05
2018-07-24T14:17:48.498Z,32.05
2018-07-24T14:20:15.763Z,32.37
2018-07-24T14:22:42.946Z,32.66
2018-07-24T14:25:10.113Z,32.75
2018-07-24T14:27:37.255Z,32.89
2018-07-24T14:30:04.777Z,32.83
2018-07-24T14:32:31.916Z,32.83
2018-07-24T14:34:59.081Z,32.77
2018-07-24T14:37:26.324Z,32.81
2018-07-24T14:39:53.464Z,32.87
2018-07-24T14:42:20.605Z,33.31
2018-07-24T14:44:47.744Z,33.18
2018-07-24T14:47:14.874Z,33.39
2018-07-24T14:49:42.019Z,33.47
2018-07-24T14:52:09.198Z,33.60
2018-07-24T14:54:36.382Z,34.07
2018-07-24T14:57:03.613Z,34.34
2018-07-24T14:59:30.780Z,34.41
2018-07-24T15:01:57.921Z,34.52
2018-07-24T15:04:25.072Z,35.08
2018-07-24T15:06:52.321Z,34.75
2018-07-24T15:09:19.487Z,34.71
2018-07-24T15:11:46.605Z,34.70
2018-07-24T15:14:13.836Z,35.33
2018-07-24T15:16:41.015Z,36.45
2018-07-24T15:19:08.108Z,37.21
2018-07-24T15:21:35.342Z,39.28
2018-07-24T15:24:02.514Z,40.25
2018-07-24T15:26:29.663Z,41.50
2018-07-24T15:28:56.871Z,42.00
2018-07-24T15:31:24.083Z,44.36
2018-07-24T15:33:51.260Z,45.41
2018-07-24T15:36:18.432Z,45.65
2018-07-24T15:38:45.564Z,44.40
2018-07-24T15:41:12.706Z,45.77
2018-07-24T15:43:39.928Z,47.51
2018-07-24T15:46:07.083Z,47.97
2018-07-24T15:48:34.250Z,48.77
2018-07-24T15:51:01.470Z,48.84
2018-07-24T15:53:28.615Z,48.32
2018-07-24T15:55:55.775Z,46.57
2018-07-24T15:58:23.023Z,47.59
2018-07-24T16:00:50.172Z,44.74
2018-07-24T16:03:17.807Z,44.18
2018-07-24T16:05:44.961Z,45.40
2018-07-24T16:08:12.097Z,46.60
2018-07-24T16:10:39.253Z,46.20
2018-07-24T16:13:06.431Z,45.56
2018-07-24T16:15:33.764Z,43.80
2018-07-24T16:18:00.757Z,42.62
2018-07-24T16:20:27.919Z,41.01
2018-07-24T16:22:55.048Z,39.86
2018-07-24T16:25:22.188Z,39.96
2018-07-24T16:27:49.374Z,40.35
2018-07-24T16:30:16.588Z,40.61
2018-07-24T16:32:43.737Z,40.84
2018-07-24T16:35:10.892Z,38.51
2018-07-24T16:37:38.003Z,38.66
2018-07-24T16:40:05.198Z,38.63
2018-07-24T16:42:32.460Z,38.93
2018-07-24T16:44:59.768Z,39.72
2018-07-24T16:47:26.890Z,39.43
2018-07-24T16:49:54.071Z,38.11
2018-07-24T16:52:21.224Z,37.92
2018-07-24T16:54:48.645Z,37.50
2018-07-24T16:57:15.826Z,36.86
2018-07-24T16:59:43.076Z,36.17
2018-07-24T17:02:10.326Z,34.65
2018-07-24T17:04:37.703Z,33.11
2018-07-24T17:07:05.040Z,32.52
2018-07-24T17:09:32.164Z,31.61
2018-07-24T17:11:59.383Z,31.30
2018-07-24T17:14:26.502Z,31.02
2018-07-24T17:16:53.632Z,30.62
2018-07-24T17:19:20.836Z,30.46
2018-07-24T17:21:48.006Z,30.24
2018-07-24T17:24:15.148Z,30.01
2018-07-24T17:26:42.433Z,29.91
2018-07-24T17:29:11.573Z,29.83
2018-07-24T17:31:40.229Z,29.68
2018-07-24T17:34:07.849Z,29.44
2018-07-24T17:36:34.997Z,29.25
2018-07-24T17:39:02.172Z,29.13
2018-07-24T17:41:29.406Z,28.97
2018-07-24T17:43:56.549Z,28.80
2018-07-24T17:46:23.680Z,28.62
2018-07-24T17:48:50.874Z,28.53
2018-07-24T17:51:18.001Z,28.41
2018-07-24T17:53:45.157Z,28.39
2018-07-24T17:56:12.292Z,28.37
2018-07-24T17:58:39.383Z,28.31
2018-07-24T18:01:06.622Z,28.20
2018-07-24T18:03:33.784Z,28.10
2018-07-24T18:06:00.920Z,27.99
2018-07-24T18:08:28.076Z,27.88
2018-07-24T18:10:55.236Z,27.76
2018-07-24T18:13:22.355Z,27.64
2018-07-24T18:15:49.584Z,27.54
2018-07-24T18:18:16.687Z,27.44
2018-07-24T18:20:43.806Z,27.29
2018-07-24T18:23:10.925Z,27.11
2018-07-24T18:25:38.077Z,27.11
2018-07-24T18:28:05.183Z,27.00
2018-07-24T18:30:32.301Z,26.88
2018-07-24T18:32:59.485Z,26.75
2018-07-24T18:35:26.605Z,26.56
2018-07-24T18:37:53.732Z,26.46
2018-07-24T18:40:21.127Z,26.33
2018-07-24T18:42:48.259Z,26.19
2018-07-24T18:45:15.372Z,26.02
2018-07-24T18:47:42.537Z,25.88
2018-07-24T18:50:09.637Z,25.74
2018-07-24T18:52:36.746Z,25.64
2018-07-24T18:55:03.937Z,25.49
2018-07-24T18:57:31.093Z,25.34
2018-07-24T18:59:58.220Z,25.21
2018-07-24T19:02:25.408Z,25.05
2018-07-24T19:04:52.521Z,24.92
2018-07-24T19:07:19.683Z,24.79
2018-07-24T19:09:46.956Z,24.68
2018-07-24T19:12:14.097Z,24.56
2018-07-24T19:14:41.215Z,24.46
2018-07-24T19:17:08.397Z,24.36
2018-07-24T19:19:35.585Z,24.23
2018-07-24T19:22:02.821Z,24.13
2018-07-24T19:24:29.996Z,24.05
2018-07-24T19:26:57.114Z,23.97
2018-07-24T19:29:24.337Z,23.87
2018-07-24T19:31:51.528Z,23.78
2018-07-24T19:34:18.655Z,23.69
2018-07-24T19:36:45.880Z,23.60
2018-07-24T19:39:13.030Z,23.50
2018-07-24T19:41:40.276Z,23.42
2018-07-24T19:44:07.856Z,23.33
2018-07-24T19:46:34.953Z,23.26
2018-07-24T19:49:02.112Z,23.20
2018-07-24T19:51:29.274Z,23.13
2018-07-24T19:53:56.449Z,23.07
2018-07-24T19:56:23.611Z,23.03
2018-07-24T19:58:50.751Z,22.96
2018-07-24T20:01:17.940Z,22.91
2018-07-24T20:03:45.137Z,22.83
2018-07-24T20:06:12.692Z,22.76
2018-07-24T20:08:39.836Z,22.69
2018-07-24T20:11:06.965Z,22.64
2018-07-24T20:13:34.130Z,22.59
2018-07-24T20:16:01.423Z,22.53
2018-07-24T20:18:28.525Z,22.51
2018-07-24T20:20:55.661Z,22.49
2018-07-24T20:23:23.017Z,22.44
2018-07-24T20:25:49.987Z,22.38
2018-07-24T20:28:17.116Z,22.32
2018-07-24T20:30:44.273Z,22.29
2018-07-24T20:33:11.408Z,22.25
2018-07-24T20:35:38.628Z,22.20
2018-07-24T20:38:05.784Z,22.17
2018-07-24T20:40:32.979Z,22.12
2018-07-24T20:43:00.142Z,22.07
2018-07-24T20:45:27.427Z,22.03
2018-07-24T20:47:54.568Z,22.00
2018-07-24T20:50:21.704Z,21.97
2018-07-24T20:52:48.872Z,21.94
2018-07-24T20:55:15.992Z,21.91
2018-07-24T20:57:43.116Z,21.91
2018-07-24T21:00:10.300Z,21.86
2018-07-24T21:02:37.448Z,21.85
2018-07-24T21:05:04.646Z,21.84
2018-07-24T21:07:31.988Z,21.84
2018-07-24T21:09:59.125Z,21.82
2018-07-24T21:12:26.284Z,21.77
2018-07-24T21:14:53.530Z,21.72
2018-07-24T21:17:20.648Z,21.68
2018-07-24T21:19:47.760Z,21.66
2018-07-24T21:22:15.027Z,21.62
2018-07-24T21:24:42.137Z,21.60
2018-07-24T21:27:09.265Z,21.54
2018-07-24T21:29:36.430Z,21.50
2018-07-24T21:32:03.612Z,21.48
2018-07-24T21:34:30.762Z,21.44
2018-07-24T21:36:57.968Z,21.40
2018-07-24T21:39:25.087Z,21.36
2018-07-24T21:41:52.220Z,21.31
2018-07-24T21:44:19.459Z,21.28
2018-07-24T21:46:46.609Z,21.26
2018-07-24T21:49:13.756Z,21.24
2018-07-24T21:51:41.045Z,21.25
2018-07-24T21:54:08.173Z,21.30
2018-07-24T21:56:35.272Z,21.28
2018-07-24T21:59:02.452Z,21.26
2018-07-24T22:01:29.600Z,21.19
2018-07-24T22:03:56.744Z,21.13
2018-07-24T22:06:24.002Z,21.08
2018-07-24T22:08:51.245Z,21.02
2018-07-24T22:11:18.292Z,20.96
2018-07-24T22:13:45.525Z,20.92
2018-07-24T22:16:12.682Z,20.85
2018-07-24T22:18:39.917Z,20.81
2018-07-24T22:21:07.406Z,20.77
2018-07-24T22:23:34.587Z,20.73
2018-07-24T22:26:01.792Z,20.68
2018-07-24T22:28:28.973Z,20.66
2018-07-24T22:30:56.085Z,20.67
2018-07-24T22:33:23.216Z,20.62
2018-07-24T22:35:50.385Z,20.58
2018-07-24T22:38:17.498Z,20.53
2018-07-24T22:40:44.634Z,20.47
2018-07-24T22:43:11.864Z,20.44
2018-07-24T22:45:39.003Z,20.40
2018-07-24T22:48:06.133Z,20.38
2018-07-24T22:50:33.324Z,20.35
2018-07-24T22:53:00.436Z,20.36
2018-07-24T22:55:27.568Z,20.32
2018-07-24T22:57:54.715Z,20.28
2018-07-24T23:00:21.885Z,20.26
2018-07-24T23:02:49.037Z,20.19
2018-07-24T23:05:16.203Z,20.25
2018-07-24T23:07:43.357Z,20.20
2018-07-24T23:10:10.516Z,20.18
2018-07-24T23:12:37.676Z,20.14
2018-07-24T23:15:05.445Z,20.11
2018-07-24T23:17:32.566Z,20.07
2018-07-24T23:19:59.814Z,20.05
2018-07-24T23:22:26.940Z,20.03
2018-07-24T23:24:54.066Z,20.00
2018-07-24T23:27:21.232Z,19.98
2018-07-24T23:29:48.343Z,19.97
2018-07-24T23:32:15.464Z,19.94
2018-07-24T23:34:42.613Z,19.91
2018-07-24T23:37:09.749Z,19.88
2018-07-24T23:39:36.873Z,19.84
2018-07-24T23:42:04.087Z,19.82
2018-07-24T23:44:31.229Z,19.82
2018-07-24T23:46:58.397Z,19.79
2018-07-24T23:49:25.641Z,19.77
2018-07-24T23:51:52.784Z,19.75
2018-07-24T23:54:19.892Z,19.73
2018-07-24T23:56:47.057Z,19.73
2018-07-24T23:59:14.178Z,19.71
